createdAt,value
2023-04-22T00:01:21.222Z,0
2023-04-22T00:03:00.992Z,0
2023-04-22T00:04:40.762Z,0
2023-04-22T00:06:20.529Z,0
2023-04-22T00:08:00.304Z,0
2023-04-22T00:09:40.080Z,0
2023-04-22T00:11:19.829Z,0
2023-04-22T00:12:59.596Z,0
2023-04-22T00:14:39.374Z,0
2023-04-22T00:16:19.140Z,0
2023-04-22T00:17:58.909Z,0
2023-04-22T00:19:38.660Z,0
2023-04-22T00:21:18.427Z,0
2023-04-22T00:22:58.207Z,0
2023-04-22T00:24:37.984Z,0
2023-04-22T00:26:17.742Z,0
2023-04-22T00:27:57.499Z,0
2023-04-22T00:29:37.262Z,0
2023-04-22T00:31:17.034Z,0
2023-04-22T00:32:56.816Z,0
2023-04-22T00:34:36.564Z,0
2023-04-22T00:36:16.333Z,0
2023-04-22T00:37:56.109Z,0
2023-04-22T00:39:35.912Z,0
2023-04-22T00:41:15.665Z,0
2023-04-22T00:42:55.406Z,0
2023-04-22T00:44:35.171Z,0
2023-04-22T00:46:14.935Z,0
2023-04-22T00:47:54.713Z,0
2023-04-22T00:49:34.579Z,0
2023-04-22T00:51:14.243Z,0
2023-04-22T00:52:54.051Z,0
2023-04-22T00:54:33.774Z,0
2023-04-22T00:56:13.562Z,0
2023-04-22T00:57:53.339Z,0
2023-04-22T00:59:33.266Z,0
2023-04-22T01:01:12.850Z,0
2023-04-22T01:02:52.618Z,0
2023-04-22T01:04:32.413Z,0
2023-04-22T01:06:12.151Z,0
2023-04-22T01:07:51.919Z,0
2023-04-22T01:09:31.852Z,0
2023-04-22T01:11:11.535Z,0
2023-04-22T01:12:51.231Z,0
2023-04-22T01:14:30.994Z,0
2023-04-22T01:16:10.774Z,0
2023-04-22T01:17:50.526Z,0
2023-04-22T01:19:30.295Z,0
2023-04-22T01:21:10.080Z,0
2023-04-22T01:22:49.852Z,0
2023-04-22T01:24:29.606Z,0
2023-04-22T01:26:09.377Z,0
2023-04-22T01:27:49.134Z,0
2023-04-22T01:29:28.907Z,0
2023-04-22T01:31:08.666Z,0
2023-04-22T01:32:48.439Z,0
2023-04-22T01:34:28.196Z,0
2023-04-22T01:36:07.983Z,0
2023-04-22T01:37:47.755Z,0
2023-04-22T01:39:27.532Z,0
2023-04-22T01:41:07.282Z,0
2023-04-22T01:42:47.062Z,0
2023-04-22T01:44:26.845Z,0
2023-04-22T01:46:06.570Z,0
2023-04-22T01:47:46.349Z,0
2023-04-22T01:49:26.149Z,0
2023-04-22T01:51:05.883Z,0
2023-04-22T01:52:45.647Z,0
2023-04-22T01:54:25.411Z,0
2023-04-22T01:56:05.190Z,0
2023-04-22T01:57:44.948Z,0
2023-04-22T01:59:24.717Z,0
2023-04-22T02:01:04.477Z,0
2023-04-22T02:02:44.256Z,0
2023-04-22T02:04:24.075Z,0
2023-04-22T02:06:03.795Z,0
2023-04-22T02:07:43.556Z,0
2023-04-22T02:09:23.320Z,0
2023-04-22T02:11:03.091Z,0
2023-04-22T02:12:42.874Z,0
2023-04-22T02:14:22.647Z,0
2023-04-22T02:16:02.411Z,0
2023-04-22T02:17:42.146Z,0
2023-04-22T02:19:21.919Z,0
2023-04-22T02:21:01.690Z,0
2023-04-22T02:22:41.467Z,0
2023-04-22T02:24:21.222Z,0
2023-04-22T02:26:00.993Z,0
2023-04-22T02:27:40.764Z,0
2023-04-22T02:29:20.530Z,0
2023-04-22T02:31:00.295Z,0
2023-04-22T02:32:40.075Z,0
2023-04-22T02:34:19.841Z,0
2023-04-22T02:35:59.599Z,0
2023-04-22T02:37:39.361Z,0
2023-04-22T02:39:19.130Z,0
2023-04-22T02:40:58.889Z,0
2023-04-22T02:42:38.674Z,0
2023-04-22T02:44:18.432Z,0
2023-04-22T02:45:58.187Z,0
2023-04-22T02:47:37.971Z,0
2023-04-22T02:49:17.730Z,0
2023-04-22T02:50:57.519Z,0
2023-04-22T02:52:37.284Z,0
2023-04-22T02:54:17.047Z,0
2023-04-22T02:55:56.817Z,0
2023-04-22T02:57:36.579Z,0
2023-04-22T02:59:16.344Z,0
2023-04-22T03:00:56.113Z,0
2023-04-22T03:02:35.888Z,0
2023-04-22T03:04:15.655Z,0
2023-04-22T03:05:55.413Z,0
2023-04-22T03:07:35.176Z,0
2023-04-22T03:09:14.946Z,0
2023-04-22T03:10:54.709Z,0
2023-04-22T03:12:34.477Z,0
2023-04-22T03:14:14.253Z,0
2023-04-22T03:15:54.042Z,0
2023-04-22T03:17:33.783Z,0
2023-04-22T03:19:13.547Z,0
2023-04-22T03:20:53.319Z,0
2023-04-22T03:22:33.084Z,0
2023-04-22T03:24:12.879Z,0
2023-04-22T03:25:52.616Z,0
2023-04-22T03:27:32.389Z,0
2023-04-22T03:29:12.192Z,0
2023-04-22T03:30:51.933Z,0
2023-04-22T03:32:31.728Z,0
2023-04-22T03:34:11.452Z,0
2023-04-22T03:35:51.220Z,0
2023-04-22T03:37:30.989Z,0
2023-04-22T03:39:10.773Z,0
2023-04-22T03:40:50.529Z,0
2023-04-22T03:42:30.284Z,0
2023-04-22T03:45:49.839Z,0
2023-04-22T03:47:29.757Z,0
2023-04-22T03:49:09.373Z,0
2023-04-22T03:52:28.905Z,0
2023-04-22T03:54:08.677Z,0
2023-04-22T03:55:48.436Z,0
2023-04-22T03:57:28.213Z,0
2023-04-22T03:59:07.980Z,0
2023-04-22T04:00:47.742Z,0
2023-04-22T04:02:27.512Z,0
2023-04-22T04:04:07.282Z,0
2023-04-22T04:05:47.058Z,0
2023-04-22T04:07:26.810Z,0
2023-04-22T04:09:06.584Z,0.02
2023-04-22T04:10:46.349Z,0.03
2023-04-22T04:12:26.119Z,0.05
2023-04-22T04:14:05.875Z,0.04
2023-04-22T04:15:45.658Z,0.04
2023-04-22T04:17:25.443Z,0.06
2023-04-22T04:19:05.228Z,0.09
2023-04-22T04:20:44.964Z,0.08
2023-04-22T04:22:24.744Z,0.1
2023-04-22T04:24:04.512Z,0.09
2023-04-22T04:25:44.266Z,0.12
2023-04-22T04:27:24.037Z,0.13
2023-04-22T04:29:03.801Z,0.13
2023-04-22T04:30:43.580Z,0.15
2023-04-22T04:32:23.352Z,0.18
2023-04-22T04:34:03.114Z,0.27
2023-04-22T04:35:42.890Z,0.17
2023-04-22T04:37:22.669Z,0.18
2023-04-22T04:39:02.446Z,0.2
2023-04-22T04:40:42.283Z,0.21
2023-04-22T04:42:21.966Z,0.22
2023-04-22T04:44:01.759Z,0.22
2023-04-22T04:45:41.506Z,0.23
2023-04-22T04:47:21.278Z,0.24
2023-04-22T04:49:01.047Z,0.24
2023-04-22T04:50:40.817Z,0.25
2023-04-22T04:52:20.594Z,0.27
2023-04-22T04:54:00.374Z,0.28
2023-04-22T04:55:40.162Z,0.3
2023-04-22T04:57:19.907Z,0.32
2023-04-22T04:58:59.680Z,0.31
2023-04-22T05:00:39.449Z,0.31
2023-04-22T05:02:19.231Z,0.32
2023-04-22T05:03:59.002Z,0.34
2023-04-22T05:05:38.748Z,0.36
2023-04-22T05:07:18.531Z,0.36
2023-04-22T05:08:58.320Z,0.4
2023-04-22T05:10:38.076Z,0.44
2023-04-22T05:12:17.848Z,0.5
2023-04-22T05:13:57.645Z,0.49
2023-04-22T05:15:37.389Z,0.56
2023-04-22T05:17:17.226Z,0.57
2023-04-22T05:18:56.930Z,0.6
2023-04-22T05:20:36.699Z,0.62
2023-04-22T05:22:16.486Z,0.66
2023-04-22T05:23:56.318Z,0.68
2023-04-22T05:25:36.016Z,0.71
2023-04-22T05:27:15.773Z,0.76
2023-04-22T05:28:55.554Z,0.78
2023-04-22T05:30:35.368Z,0.82
2023-04-22T05:32:15.092Z,0.87
2023-04-22T05:33:54.865Z,1.6
2023-04-22T05:35:34.631Z,2.17
2023-04-22T05:37:14.402Z,2.17
2023-04-22T05:38:54.169Z,1.87
2023-04-22T05:40:33.929Z,1.67
2023-04-22T05:42:13.728Z,1.62
2023-04-22T05:43:53.498Z,1.46
2023-04-22T05:45:33.258Z,1.48
2023-04-22T05:47:13.020Z,1.43
2023-04-22T05:48:52.791Z,1.39
2023-04-22T05:50:32.560Z,1.35
2023-04-22T05:52:12.324Z,1.33
2023-04-22T05:53:52.096Z,1.35
2023-04-22T05:55:31.876Z,1.33
2023-04-22T05:57:11.638Z,1.29
2023-04-22T05:58:51.498Z,1.33
2023-04-22T06:00:31.290Z,1.31
2023-04-22T06:02:10.978Z,1.26
2023-04-22T06:03:50.724Z,1.29
2023-04-22T06:05:30.492Z,1.29
2023-04-22T06:07:10.262Z,1.27
2023-04-22T06:08:50.040Z,1.27
2023-04-22T06:10:29.843Z,1.26
2023-04-22T06:12:09.708Z,1.25
2023-04-22T06:13:49.531Z,1.26
2023-04-22T06:15:29.280Z,1.28
2023-04-22T06:17:08.970Z,1.26
2023-04-22T06:18:48.844Z,1.27
2023-04-22T06:20:28.433Z,1.31
2023-04-22T06:22:08.343Z,1.3
2023-04-22T06:23:48.150Z,1.27
2023-04-22T06:25:27.883Z,1.28
2023-04-22T06:27:07.697Z,1.28
2023-04-22T06:28:47.488Z,1.27
2023-04-22T06:30:27.235Z,1.32
2023-04-22T06:32:06.978Z,1.25
2023-04-22T06:33:46.827Z,1.27
2023-04-22T06:35:26.372Z,1.23
2023-04-22T06:37:06.374Z,1.23
2023-04-22T06:38:46.029Z,1.21
2023-04-22T06:40:25.670Z,1.23
2023-04-22T06:42:05.641Z,1.21
2023-04-22T06:43:45.405Z,1.21
2023-04-22T06:45:25.112Z,1.19
2023-04-22T06:47:04.946Z,1.21
2023-04-22T06:48:44.524Z,1.2
2023-04-22T06:50:24.299Z,1.21
2023-04-22T06:52:04.138Z,1.17
2023-04-22T06:53:43.905Z,1.21
2023-04-22T06:55:23.744Z,1.2
2023-04-22T06:57:03.373Z,1.16
2023-04-22T06:58:43.290Z,1.2
2023-04-22T07:00:23.056Z,1.19
2023-04-22T07:02:02.848Z,1.17
2023-04-22T07:03:42.628Z,1.16
2023-04-22T07:05:22.233Z,1.19
2023-04-22T07:07:02.110Z,1.16
2023-04-22T07:08:41.761Z,1.19
2023-04-22T07:10:21.725Z,1.19
2023-04-22T07:12:01.368Z,1.17
2023-04-22T07:13:41.082Z,1.2
2023-04-22T07:15:20.934Z,1.15
2023-04-22T07:17:00.720Z,1.16
2023-04-22T07:18:40.530Z,1.16
2023-04-22T07:20:20.155Z,1.16
2023-04-22T07:21:59.938Z,1.11
2023-04-22T07:23:39.823Z,1.16
2023-04-22T07:25:19.489Z,1.16
2023-04-22T07:26:59.249Z,1.16
2023-04-22T07:28:39.093Z,1.17
2023-04-22T07:30:18.868Z,1.16
2023-04-22T07:31:58.677Z,1.13
2023-04-22T07:33:38.322Z,1.14
2023-04-22T07:35:18.157Z,1.17
2023-04-22T07:36:57.985Z,1.13
2023-04-22T07:38:37.639Z,1.15
2023-04-22T07:40:17.494Z,1.12
2023-04-22T07:41:57.263Z,1.15
2023-04-22T07:43:37.082Z,1.15
2023-04-22T07:45:16.832Z,1.14
2023-04-22T07:46:56.582Z,1.15
2023-04-22T07:48:36.405Z,1.03
2023-04-22T07:50:16.030Z,1.14
2023-04-22T07:51:55.802Z,1.14
2023-04-22T07:53:35.612Z,1.14
2023-04-22T07:55:15.333Z,1.12
2023-04-22T07:56:55.295Z,1.13
2023-04-22T07:58:34.885Z,1.11
2023-04-22T08:00:14.771Z,1.12
2023-04-22T08:01:54.468Z,1.11
2023-04-22T08:03:34.177Z,1.11
2023-04-22T08:05:14.178Z,1.1
2023-04-22T08:06:53.796Z,1.12
2023-04-22T08:08:33.520Z,1.11
2023-04-22T08:10:13.283Z,1.09
2023-04-22T08:11:53.082Z,1.14
2023-04-22T08:13:32.823Z,1.1
2023-04-22T08:15:12.665Z,1.11
2023-04-22T08:16:52.357Z,1.11
2023-04-22T08:18:32.129Z,1.12
2023-04-22T08:20:11.953Z,1.1
2023-04-22T08:21:51.971Z,1.1
2023-04-22T08:23:31.437Z,1.12
2023-04-22T08:25:11.288Z,1.09
2023-04-22T08:26:50.966Z,1.1
2023-04-22T08:28:30.886Z,1.09
2023-04-22T08:30:10.524Z,1.11
2023-04-22T08:31:50.302Z,1.09
2023-04-22T08:33:30.108Z,1.09
2023-04-22T08:35:09.838Z,1.11
2023-04-22T08:36:49.592Z,1.08
2023-04-22T08:38:29.379Z,0
2023-04-22T08:40:09.160Z,0
2023-04-22T08:41:48.921Z,0
2023-04-22T08:43:28.689Z,0
2023-04-22T08:45:08.444Z,0
2023-04-22T08:46:48.300Z,0
2023-04-22T08:48:28.051Z,0
2023-04-22T08:50:07.759Z,0
2023-04-22T08:51:47.554Z,0.14
2023-04-22T08:53:27.302Z,0.14
2023-04-22T08:55:07.198Z,0.14
2023-04-22T08:56:46.856Z,0.19
2023-04-22T08:58:26.690Z,0.21
2023-04-22T09:00:06.493Z,0.21
2023-04-22T09:01:46.169Z,0.19
2023-04-22T09:03:25.926Z,0.21
2023-04-22T09:05:05.685Z,0.21
2023-04-22T09:06:45.565Z,0.21
2023-04-22T09:08:25.228Z,0.25
2023-04-22T09:10:05.115Z,0.24
2023-04-22T09:11:44.918Z,0.24
2023-04-22T09:13:24.628Z,0.25
2023-04-22T09:15:04.381Z,0.21
2023-04-22T09:16:44.192Z,0.22
2023-04-22T09:18:23.996Z,0.24
2023-04-22T09:20:03.804Z,0.28
2023-04-22T09:21:43.501Z,0.23
2023-04-22T09:23:23.247Z,0.24
2023-04-22T09:25:02.991Z,0.22
2023-04-22T09:26:42.894Z,0.24
2023-04-22T09:28:22.477Z,0.25
2023-04-22T09:30:02.341Z,0.22
2023-04-22T09:31:42.031Z,0.21
2023-04-22T09:33:22.009Z,0.22
2023-04-22T09:35:01.667Z,0.23
2023-04-22T09:36:41.328Z,0.25
2023-04-22T09:38:21.206Z,0.19
2023-04-22T09:40:00.938Z,0.22
2023-04-22T09:41:40.807Z,0.23
2023-04-22T09:43:20.499Z,0.25
2023-04-22T09:45:00.206Z,0.23
2023-04-22T09:46:40.082Z,0.2
2023-04-22T09:48:19.838Z,0.2
2023-04-22T09:49:59.689Z,0.22
2023-04-22T09:51:39.263Z,0.21
2023-04-22T09:53:19.214Z,0.22
2023-04-22T09:54:58.803Z,0.21
2023-04-22T09:56:38.601Z,0.23
2023-04-22T09:58:18.393Z,0.24
2023-04-22T09:59:58.128Z,0.23
2023-04-22T10:01:37.891Z,0.24
2023-04-22T10:03:17.670Z,0.21
2023-04-22T10:04:57.444Z,0.21
2023-04-22T10:06:37.360Z,0.23
2023-04-22T10:08:16.972Z,0.2
2023-04-22T10:09:56.800Z,0.22
2023-04-22T10:11:36.509Z,0.22
2023-04-22T10:13:16.362Z,0.22
2023-04-22T10:14:56.051Z,0.2
2023-04-22T10:16:35.839Z,0.23
2023-04-22T10:18:15.588Z,0.23
2023-04-22T10:19:55.375Z,0.23
2023-04-22T10:21:35.124Z,0.22
2023-04-22T10:23:14.898Z,0.17
2023-04-22T10:24:54.661Z,0.21
2023-04-22T10:26:34.446Z,0.22
2023-04-22T10:28:14.215Z,0.23
2023-04-22T10:29:54.047Z,0.22
2023-04-22T10:31:33.760Z,0.21
2023-04-22T10:33:13.533Z,0.21
2023-04-22T10:34:53.317Z,0.22
2023-04-22T10:36:33.062Z,0.19
2023-04-22T10:38:12.864Z,0.18
2023-04-22T10:39:52.728Z,0.2
2023-04-22T10:41:32.423Z,0.21
2023-04-22T10:43:12.192Z,0.21
2023-04-22T10:44:51.948Z,0.22
2023-04-22T10:46:31.692Z,0.22
2023-04-22T10:48:11.480Z,0.2
2023-04-22T10:49:51.297Z,0.22
2023-04-22T10:51:31.000Z,0.2
2023-04-22T10:53:10.854Z,0.2
2023-04-22T10:54:50.569Z,0.19
2023-04-22T10:56:30.378Z,0.19
2023-04-22T10:58:10.176Z,0.2
2023-04-22T10:59:49.838Z,0.18
2023-04-22T11:01:29.694Z,0.2
2023-04-22T11:03:09.454Z,0.18
2023-04-22T11:04:49.345Z,0.17
2023-04-22T11:06:28.996Z,0.19
2023-04-22T11:08:08.701Z,0.18
2023-04-22T11:09:48.473Z,0.2
2023-04-22T11:11:28.387Z,0.16
2023-04-22T11:13:08.087Z,0.21
2023-04-22T11:14:47.798Z,0.18
2023-04-22T11:16:27.659Z,0.2
2023-04-22T11:18:07.418Z,0.16
2023-04-22T11:19:47.101Z,0.17
2023-04-22T11:21:26.911Z,0.18
2023-04-22T11:23:06.632Z,0.19
2023-04-22T11:24:46.398Z,0.21
2023-04-22T11:26:26.334Z,0.17
2023-04-22T11:28:05.953Z,0.2
2023-04-22T11:29:45.718Z,0.17
2023-04-22T11:31:25.501Z,0.19
2023-04-22T11:33:05.331Z,0.2
2023-04-22T11:34:45.037Z,0.17
2023-04-22T11:36:24.829Z,0.16
2023-04-22T11:38:04.619Z,0.18
2023-04-22T11:39:44.340Z,0.21
2023-04-22T11:41:24.132Z,0.18
2023-04-22T11:43:03.910Z,0.17
2023-04-22T11:44:43.711Z,0.17
2023-04-22T11:46:23.452Z,0.15
2023-04-22T11:48:03.282Z,0.18
2023-04-22T11:49:42.969Z,0.2
2023-04-22T11:51:22.814Z,0.2
2023-04-22T11:53:02.654Z,0.2
2023-04-22T11:54:42.397Z,0.15
2023-04-22T11:56:40.002Z,0.17
2023-04-22T11:58:01.802Z,0.16
2023-04-22T11:59:41.722Z,0.16
2023-04-22T12:01:21.379Z,0.16
2023-04-22T12:03:01.124Z,0.15
2023-04-22T12:04:40.902Z,0.17
2023-04-22T12:06:20.668Z,0.15
2023-04-22T12:08:00.544Z,0.15
2023-04-22T12:09:40.429Z,0.18
2023-04-22T12:11:19.979Z,0.16
2023-04-22T12:12:59.736Z,0.18
2023-04-22T12:14:39.576Z,0.14
2023-04-22T12:16:19.427Z,0.19
2023-04-22T12:17:59.049Z,0.15
2023-04-22T12:19:38.893Z,0.16
2023-04-22T12:21:18.640Z,0.19
2023-04-22T12:22:58.420Z,0.14
2023-04-22T12:24:38.170Z,0.17
2023-04-22T12:26:17.913Z,0.14
2023-04-22T12:27:57.756Z,0.16
2023-04-22T12:29:37.469Z,0.14
2023-04-22T12:31:17.316Z,0.17
2023-04-22T12:32:57.033Z,0.14
2023-04-22T12:34:36.758Z,0.32
2023-04-22T12:36:16.612Z,0.15
2023-04-22T12:37:56.307Z,0.16
2023-04-22T12:39:36.224Z,0.17
2023-04-22T12:41:15.914Z,0.18
2023-04-22T12:42:55.648Z,0.16
2023-04-22T12:44:35.518Z,0.17
2023-04-22T12:46:15.628Z,0.18
2023-04-22T12:47:54.929Z,0.13
2023-04-22T12:49:34.818Z,0.15
2023-04-22T12:51:14.507Z,0.17
2023-04-22T12:52:54.271Z,0.14
2023-04-22T12:54:34.020Z,0.16
2023-04-22T12:56:13.943Z,0.16
2023-04-22T12:57:53.645Z,0.13
2023-04-22T12:59:33.311Z,0.15
2023-04-22T13:01:13.100Z,0.14
2023-04-22T13:02:52.918Z,0.16
2023-04-22T13:04:32.649Z,0.14
2023-04-22T13:06:12.457Z,0.15
2023-04-22T13:07:52.195Z,0.14
2023-04-22T13:09:32.151Z,0.15
2023-04-22T13:11:11.716Z,0.13
2023-04-22T13:12:51.575Z,0.15
2023-04-22T13:14:31.334Z,0.14
2023-04-22T13:16:11.023Z,0.16
2023-04-22T13:17:50.805Z,0.14
2023-04-22T13:19:30.713Z,0.15
2023-04-22T13:21:10.385Z,0.13
2023-04-22T13:22:50.120Z,0.16
2023-04-22T13:24:29.949Z,0.14
2023-04-22T13:26:09.661Z,0.11
2023-04-22T13:27:49.429Z,0.12
2023-04-22T13:29:29.293Z,0.16
2023-04-22T13:31:08.984Z,0.14
2023-04-22T13:32:48.738Z,0.15
2023-04-22T13:34:28.515Z,0.16
2023-04-22T13:36:08.303Z,0.13
2023-04-22T13:37:48.038Z,0.14
2023-04-22T13:39:27.959Z,0.12
2023-04-22T13:41:07.647Z,0.14
2023-04-22T13:42:47.376Z,0.13
2023-04-22T13:44:27.208Z,0.12
2023-04-22T13:46:06.900Z,0.15
2023-04-22T13:47:46.663Z,0.12
2023-04-22T13:49:26.460Z,0.14
2023-04-22T13:51:06.265Z,0.15
2023-04-22T13:52:45.972Z,0.15
2023-04-22T13:54:25.758Z,0.16
2023-04-22T13:56:05.576Z,0.14
2023-04-22T13:57:45.323Z,0.11
2023-04-22T13:59:25.147Z,0.12
2023-04-22T14:01:04.845Z,0.13
2023-04-22T14:02:44.595Z,0.12
2023-04-22T14:04:24.358Z,0.15
2023-04-22T14:06:04.204Z,0.12
2023-04-22T14:07:43.944Z,0.15
2023-04-22T14:09:23.757Z,0.12
2023-04-22T14:11:03.520Z,0.11
2023-04-22T14:12:43.199Z,0.1
2023-04-22T14:14:23.082Z,0.12
2023-04-22T14:16:02.832Z,0.12
2023-04-22T14:17:42.615Z,0.11
2023-04-22T14:19:22.294Z,0.13
2023-04-22T14:21:02.073Z,0.13
2023-04-22T14:22:41.918Z,0.13
2023-04-22T14:24:21.614Z,0.13
2023-04-22T14:26:01.442Z,0.12
2023-04-22T14:27:41.237Z,0.15
2023-04-22T14:29:20.936Z,0.12
2023-04-22T14:31:00.706Z,0.16
2023-04-22T14:32:40.550Z,0.12
2023-04-22T14:34:20.269Z,0.11
2023-04-22T14:36:00.001Z,0.14
2023-04-22T14:37:39.822Z,0.13
2023-04-22T14:39:19.549Z,0.13
2023-04-22T14:40:59.344Z,0.11
2023-04-22T14:42:39.112Z,0.13
2023-04-22T14:44:18.880Z,0.08
2023-04-22T14:45:58.624Z,0.13
2023-04-22T14:47:38.407Z,0.13
2023-04-22T14:49:18.178Z,0.15
2023-04-22T14:50:57.936Z,0.15
2023-04-22T14:52:37.714Z,0.1
2023-04-22T14:54:17.484Z,0.11
2023-04-22T14:55:57.249Z,0.11
2023-04-22T14:57:37.026Z,0.11
2023-04-22T14:59:16.801Z,0.13
2023-04-22T15:00:56.566Z,0.15
2023-04-22T15:02:36.325Z,0.13
2023-04-22T15:04:16.151Z,0.15
2023-04-22T15:05:55.878Z,0.14
2023-04-22T15:07:35.646Z,0.1
2023-04-22T15:09:15.513Z,0.13
2023-04-22T15:10:55.270Z,0.05
2023-04-22T15:12:34.946Z,0.1
2023-04-22T15:14:14.743Z,0.12
2023-04-22T15:15:54.516Z,0.09
2023-04-22T15:17:34.296Z,0.13
2023-04-22T15:19:14.050Z,0.1
2023-04-22T15:20:53.816Z,0.13
2023-04-22T15:22:33.575Z,0.14
2023-04-22T15:24:13.361Z,0.12
2023-04-22T15:25:53.140Z,0.11
2023-04-22T15:27:32.904Z,0.11
2023-04-22T15:29:12.716Z,0.14
2023-04-22T15:30:52.507Z,0.1
2023-04-22T15:32:32.234Z,0.14
2023-04-22T15:34:12.081Z,0.11
2023-04-22T15:35:51.736Z,0.12
2023-04-22T15:37:31.564Z,0.11
2023-04-22T15:39:11.446Z,0.13
2023-04-22T15:40:51.054Z,0.12
2023-04-22T15:42:30.902Z,0.1
2023-04-22T15:44:10.590Z,0.11
2023-04-22T15:45:50.484Z,0.12
2023-04-22T15:47:30.154Z,0.11
2023-04-22T15:49:09.916Z,0.14
2023-04-22T15:50:49.720Z,0.14
2023-04-22T15:52:29.459Z,0.11
2023-04-22T15:54:09.249Z,0.14
2023-04-22T15:55:49.114Z,0.11
2023-04-22T15:57:28.768Z,0.15
2023-04-22T15:59:08.589Z,0.1
2023-04-22T16:00:48.326Z,0.11
2023-04-22T16:02:28.086Z,0.09
2023-04-22T16:04:07.910Z,0.11
2023-04-22T16:05:47.607Z,0.1
2023-04-22T16:07:27.387Z,0.12
2023-04-22T16:09:07.175Z,0.1
2023-04-22T16:10:46.947Z,0.11
2023-04-22T16:12:26.696Z,0.09
2023-04-22T16:14:06.490Z,0.14
2023-04-22T16:15:46.270Z,0.11
2023-04-22T16:17:26.019Z,0.1
2023-04-22T16:19:05.784Z,0.14
2023-04-22T16:20:45.616Z,0.11
2023-04-22T16:22:25.317Z,0.13
2023-04-22T16:24:05.087Z,0.1
2023-04-22T16:25:44.852Z,0.13
2023-04-22T16:27:24.626Z,0.14
2023-04-22T16:29:04.411Z,0.21
2023-04-22T16:30:44.180Z,0.11
2023-04-22T16:32:24.077Z,0.13
2023-04-22T16:34:03.724Z,0.11
2023-04-22T16:35:43.488Z,0.11
2023-04-22T16:37:23.388Z,0.11
2023-04-22T16:39:03.030Z,0.12
2023-04-22T16:40:42.792Z,0.12
2023-04-22T16:42:22.613Z,0.13
2023-04-22T16:44:02.337Z,0.14
2023-04-22T16:45:42.125Z,0.12
2023-04-22T16:47:21.870Z,0.13
2023-04-22T16:49:01.663Z,0.1
2023-04-22T16:50:41.435Z,0.1
2023-04-22T16:52:21.247Z,0.1
2023-04-22T16:54:00.994Z,0.11
2023-04-22T16:55:40.731Z,0.12
2023-04-22T16:57:20.577Z,0.13
2023-04-22T16:59:00.374Z,0.11
2023-04-22T17:00:40.106Z,0.1
2023-04-22T17:02:19.803Z,0.11
2023-04-22T17:03:59.699Z,0.15
2023-04-22T17:05:39.346Z,0.14
2023-04-22T17:07:19.128Z,0.12
2023-04-22T17:08:58.888Z,0.12
2023-04-22T17:10:38.744Z,0.12
2023-04-22T17:12:18.552Z,0.13
2023-04-22T17:13:58.322Z,0.12
2023-04-22T17:15:37.984Z,0.1
2023-04-22T17:17:17.774Z,0.13
2023-04-22T17:18:57.522Z,0.1
2023-04-22T17:20:37.305Z,0.12
2023-04-22T17:22:17.139Z,0.11
2023-04-22T17:23:56.832Z,0.13
2023-04-22T17:25:36.600Z,0.14
2023-04-22T17:27:16.369Z,0.11
2023-04-22T17:28:56.172Z,0.1
2023-04-22T17:30:36.024Z,0.15
2023-04-22T17:32:15.844Z,0.15
2023-04-22T17:33:55.626Z,0.13
2023-04-22T17:35:35.283Z,0.14
2023-04-22T17:37:15.122Z,0.13
2023-04-22T17:38:54.760Z,0.15
2023-04-22T17:40:34.581Z,0.13
2023-04-22T17:42:14.342Z,0.15
2023-04-22T17:43:54.194Z,0.14
2023-04-22T17:45:34.030Z,0.13
2023-04-22T17:47:13.685Z,0.1
2023-04-22T17:48:53.601Z,0.14
2023-04-22T17:50:33.173Z,0.13
2023-04-22T17:52:13.022Z,0.08
2023-04-22T17:53:52.883Z,0.02
2023-04-22T17:55:32.538Z,0
2023-04-22T17:57:12.408Z,0
2023-04-22T17:58:52.139Z,0
2023-04-22T18:00:32.031Z,0
2023-04-22T18:02:11.538Z,0
2023-04-22T18:03:51.310Z,0
2023-04-22T18:05:31.095Z,0
2023-04-22T18:07:10.953Z,0
2023-04-22T18:08:50.618Z,0
2023-04-22T18:10:30.497Z,0
2023-04-22T18:12:10.153Z,0
2023-04-22T18:13:49.920Z,0
2023-04-22T18:15:29.697Z,0
2023-04-22T18:17:09.451Z,0
2023-04-22T18:18:49.364Z,0
2023-04-22T18:20:29.136Z,0
2023-04-22T18:22:08.776Z,0
2023-04-22T18:23:48.568Z,0
2023-04-22T18:25:28.379Z,0
2023-04-22T18:27:08.083Z,0
2023-04-22T18:28:47.910Z,0
2023-04-22T18:30:27.691Z,0
2023-04-22T18:32:07.509Z,0
2023-04-22T18:33:47.201Z,0
2023-04-22T18:35:26.892Z,0
2023-04-22T18:37:06.814Z,0
2023-04-22T18:38:46.498Z,0
2023-04-22T18:40:26.259Z,0
2023-04-22T18:42:05.959Z,0
2023-04-22T18:43:45.731Z,0
2023-04-22T18:45:25.521Z,0
2023-04-22T18:47:05.273Z,0
2023-04-22T18:48:45.075Z,0
2023-04-22T18:50:24.793Z,0
2023-04-22T18:52:04.610Z,0
2023-04-22T18:53:44.328Z,0
2023-04-22T18:55:24.104Z,0
2023-04-22T18:57:03.871Z,0
2023-04-22T18:58:43.702Z,0
2023-04-22T19:00:23.414Z,0
2023-04-22T19:02:03.318Z,0
2023-04-22T19:03:42.937Z,0
2023-04-22T19:05:22.855Z,0
2023-04-22T19:07:02.460Z,0
2023-04-22T19:08:42.312Z,0
2023-04-22T19:10:22.008Z,0
2023-04-22T19:12:01.782Z,0
2023-04-22T19:13:41.551Z,0
2023-04-22T19:15:21.322Z,0
2023-04-22T19:17:01.093Z,0
2023-04-22T19:18:40.857Z,0
2023-04-22T19:20:20.619Z,0
2023-04-22T19:22:00.388Z,0
2023-04-22T19:23:40.162Z,0
2023-04-22T19:25:19.918Z,0
2023-04-22T19:26:59.809Z,0
2023-04-22T19:28:39.458Z,0
2023-04-22T19:30:19.235Z,0
2023-04-22T19:31:59.031Z,0
2023-04-22T19:33:38.805Z,0
2023-04-22T19:35:18.518Z,0
2023-04-22T19:36:58.295Z,0
2023-04-22T19:38:38.066Z,0
2023-04-22T19:40:17.818Z,0
2023-04-22T19:41:57.645Z,0
2023-04-22T19:43:37.369Z,0
2023-04-22T19:45:17.121Z,0
2023-04-22T19:46:57.039Z,0
2023-04-22T19:48:36.715Z,0
2023-04-22T19:50:16.489Z,0
2023-04-22T19:51:56.294Z,0
2023-04-22T19:53:35.958Z,0
2023-04-22T19:55:15.739Z,0
2023-04-22T19:56:55.596Z,0
2023-04-22T19:58:35.294Z,0
2023-04-22T20:00:15.134Z,0
2023-04-22T20:01:54.806Z,0
2023-04-22T20:03:34.573Z,0
2023-04-22T20:05:14.340Z,0
2023-04-22T20:06:54.122Z,0
2023-04-22T20:08:33.886Z,0
2023-04-22T20:10:13.640Z,0
2023-04-22T20:11:53.407Z,0
2023-04-22T20:13:33.183Z,0
2023-04-22T20:15:13.017Z,0
2023-04-22T20:16:52.741Z,0
2023-04-22T20:18:32.611Z,0
2023-04-22T20:20:12.300Z,0
2023-04-22T20:21:52.028Z,0
2023-04-22T20:23:31.878Z,0
2023-04-22T20:25:11.555Z,0
2023-04-22T20:26:51.414Z,0
2023-04-22T20:28:31.145Z,0
2023-04-22T20:30:10.876Z,0
2023-04-22T20:31:50.618Z,0
2023-04-22T20:33:30.555Z,0
2023-04-22T20:35:10.163Z,0
2023-04-22T20:36:49.923Z,0
2023-04-22T20:38:29.825Z,0
2023-04-22T20:40:09.468Z,0
2023-04-22T20:41:49.228Z,0
2023-04-22T20:43:28.991Z,0
2023-04-22T20:45:08.790Z,0
2023-04-22T20:46:48.538Z,0
2023-04-22T20:48:28.368Z,0
2023-04-22T20:50:08.060Z,0
2023-04-22T20:51:47.822Z,0
2023-04-22T20:53:27.612Z,0
2023-04-22T20:55:07.449Z,0
2023-04-22T20:56:47.132Z,0
2023-04-22T20:58:26.910Z,0
2023-04-22T21:00:06.698Z,0
2023-04-22T21:01:46.438Z,0
2023-04-22T21:03:26.215Z,0
2023-04-22T21:05:06.074Z,0
2023-04-22T21:06:45.815Z,0
2023-04-22T21:08:25.514Z,0
2023-04-22T21:10:05.267Z,0
2023-04-22T21:11:45.064Z,0
2023-04-22T21:13:24.804Z,0
2023-04-22T21:15:04.606Z,0
2023-04-22T21:16:44.343Z,0
2023-04-22T21:18:24.099Z,0
2023-04-22T21:20:03.975Z,0
2023-04-22T21:21:43.661Z,0
2023-04-22T21:23:23.417Z,0
2023-04-22T21:25:03.273Z,0
2023-04-22T21:26:42.997Z,0
2023-04-22T21:28:22.726Z,0
2023-04-22T21:30:02.498Z,0
2023-04-22T21:31:42.310Z,0
2023-04-22T21:33:22.077Z,0
2023-04-22T21:35:01.906Z,0
2023-04-22T21:36:41.641Z,0
2023-04-22T21:38:21.344Z,0
2023-04-22T21:40:01.093Z,0
2023-04-22T21:41:41.016Z,0
2023-04-22T21:43:20.682Z,0
2023-04-22T21:45:00.419Z,0
2023-04-22T21:46:40.154Z,0
2023-04-22T21:48:20.036Z,0
2023-04-22T21:49:59.819Z,0
2023-04-22T21:51:39.485Z,0
2023-04-22T21:53:19.309Z,0
2023-04-22T21:54:59.161Z,0
2023-04-22T21:56:38.756Z,0
2023-04-22T21:58:18.531Z,0
2023-04-22T21:59:58.337Z,0
2023-04-22T22:01:38.120Z,0
2023-04-22T22:03:17.929Z,0
2023-04-22T22:04:57.588Z,0
2023-04-22T22:06:37.494Z,0
2023-04-22T22:08:17.182Z,0
2023-04-22T22:09:56.920Z,0
2023-04-22T22:11:36.680Z,0
2023-04-22T22:13:16.452Z,0
2023-04-22T22:14:56.367Z,0
2023-04-22T22:16:36.015Z,0
2023-04-22T22:18:15.739Z,0
2023-04-22T22:19:55.517Z,0
2023-04-22T22:21:35.328Z,0
2023-04-22T22:23:15.090Z,0
2023-04-22T22:24:54.803Z,0
2023-04-22T22:26:34.571Z,0
2023-04-22T22:28:14.415Z,0
2023-04-22T22:29:54.104Z,0
2023-04-22T22:31:33.903Z,0
2023-04-22T22:33:13.665Z,0
2023-04-22T22:34:53.427Z,0
2023-04-22T22:36:33.246Z,0
2023-04-22T22:38:12.951Z,0
2023-04-22T22:39:52.713Z,0
2023-04-22T22:41:32.555Z,0
2023-04-22T22:43:12.247Z,0
2023-04-22T22:44:52.026Z,0
2023-04-22T22:46:31.788Z,0
2023-04-22T22:48:11.549Z,0
2023-04-22T22:49:51.323Z,0
2023-04-22T22:51:31.156Z,0
2023-04-22T22:53:10.858Z,0
2023-04-22T22:54:50.646Z,0
2023-04-22T22:56:30.433Z,0
2023-04-22T22:58:10.196Z,0
2023-04-22T22:59:49.938Z,0
2023-04-22T23:01:29.730Z,0
2023-04-22T23:03:09.455Z,0
2023-04-22T23:04:49.227Z,0
2023-04-22T23:06:29.010Z,0
2023-04-22T23:08:08.826Z,0
2023-04-22T23:09:48.539Z,0
2023-04-22T23:11:28.295Z,0